createdAt,value
2022-12-31T00:00:53.295Z,73.62
2022-12-31T00:03:40.175Z,73.97
2022-12-31T00:06:31.736Z,74.02
2022-12-31T00:09:18.428Z,73.68
2022-12-31T00:12:05.289Z,73.77
2022-12-31T00:14:51.394Z,73.05
2022-12-31T00:17:37.696Z,73.08
2022-12-31T00:20:24.003Z,73.32
2022-12-31T00:23:10.958Z,73.42
2022-12-31T00:25:57.215Z,73.20
2022-12-31T00:28:44.161Z,73.18
2022-12-31T00:31:33.018Z,73.22
2022-12-31T00:34:19.418Z,73.02
2022-12-31T00:37:06.081Z,72.77
2022-12-31T00:39:52.289Z,73.11
2022-12-31T00:42:38.865Z,72.74
2022-12-31T00:45:25.270Z,72.58
2022-12-31T00:48:11.436Z,72.59
2022-12-31T00:50:58.748Z,72.35
2022-12-31T00:53:45.213Z,71.98
2022-12-31T00:56:32.049Z,72.04
2022-12-31T00:59:18.780Z,72.41
2022-12-31T01:02:05.610Z,72.08
2022-12-31T01:04:52.039Z,72.01
2022-12-31T01:07:38.751Z,72.20
2022-12-31T01:10:44.270Z,72.16
2022-12-31T01:13:30.487Z,72.11
2022-12-31T01:16:19.273Z,72.00
2022-12-31T01:19:08.965Z,72.33
2022-12-31T01:21:55.693Z,72.06
2022-12-31T01:24:42.122Z,72.20
2022-12-31T01:27:29.040Z,72.21
2022-12-31T01:30:15.360Z,72.32
2022-12-31T01:33:01.376Z,72.56
2022-12-31T01:35:47.731Z,72.91
2022-12-31T01:38:35.314Z,73.27
2022-12-31T01:41:48.097Z,73.59
2022-12-31T01:44:40.634Z,73.46
2022-12-31T01:47:40.355Z,73.49
2022-12-31T01:50:32.325Z,73.48
2022-12-31T01:53:18.675Z,73.89
2022-12-31T01:56:06.600Z,73.98
2022-12-31T01:58:55.364Z,73.59
2022-12-31T02:01:41.780Z,73.57
2022-12-31T02:04:28.821Z,73.86
2022-12-31T02:07:15.381Z,73.76
2022-12-31T02:10:01.901Z,73.88
2022-12-31T02:12:48.207Z,73.95
2022-12-31T02:15:56.063Z,73.72
2022-12-31T02:18:51.673Z,73.69
2022-12-31T02:22:11.798Z,73.63
2022-12-31T02:25:16.889Z,73.63
2022-12-31T02:28:16.248Z,73.42
2022-12-31T02:31:12.558Z,72.99
2022-12-31T02:34:04.630Z,72.94
2022-12-31T02:36:51.690Z,72.98
2022-12-31T02:39:38.430Z,73.02
2022-12-31T02:42:25.074Z,72.95
2022-12-31T02:45:14.030Z,72.90
2022-12-31T02:52:14.007Z,73.01
2022-12-31T02:55:03.242Z,72.55
2022-12-31T02:58:01.083Z,72.41
2022-12-31T03:01:13.409Z,72.37
2022-12-31T03:04:18.608Z,72.25
2022-12-31T03:07:18.842Z,72.49
2022-12-31T03:10:06.029Z,72.37
2022-12-31T03:12:52.628Z,72.74
2022-12-31T03:15:39.757Z,72.56
2022-12-31T03:18:46.345Z,72.40
2022-12-31T03:21:51.659Z,72.79
2022-12-31T03:24:56.885Z,72.85
2022-12-31T03:27:44.478Z,72.48
2022-12-31T03:30:31.962Z,72.78
2022-12-31T03:33:19.572Z,72.53
2022-12-31T03:36:13.026Z,72.58
2022-12-31T03:38:59.422Z,72.49
2022-12-31T03:41:45.993Z,72.53
2022-12-31T03:44:32.800Z,72.70
2022-12-31T03:47:19.189Z,72.68
2022-12-31T03:50:08.084Z,72.66
2022-12-31T03:52:54.926Z,72.91
2022-12-31T03:55:41.273Z,72.77
2022-12-31T03:58:28.100Z,72.79
2022-12-31T04:01:14.667Z,72.94
2022-12-31T04:04:00.962Z,72.99
2022-12-31T04:06:48.036Z,73.15
2022-12-31T04:09:34.644Z,73.25
2022-12-31T04:12:21.619Z,73.26
2022-12-31T04:15:13.288Z,73.52
2022-12-31T04:18:00.102Z,73.47
2022-12-31T04:20:46.932Z,73.33
2022-12-31T04:23:33.682Z,73.59
2022-12-31T04:26:20.094Z,73.38
2022-12-31T04:29:07.046Z,73.56
2022-12-31T04:31:53.522Z,73.81
2022-12-31T04:34:40.488Z,73.78
2022-12-31T04:37:27.421Z,73.81
2022-12-31T04:40:13.925Z,73.84
2022-12-31T04:43:00.506Z,73.85
2022-12-31T04:45:47.405Z,74.02
2022-12-31T04:48:34.346Z,73.62
2022-12-31T04:51:21.837Z,73.76
2022-12-31T04:54:08.630Z,73.72
2022-12-31T04:56:55.509Z,73.83
2022-12-31T04:59:42.376Z,74.01
2022-12-31T05:02:30.302Z,74.19
2022-12-31T05:05:16.966Z,74.57
2022-12-31T05:08:03.568Z,74.93
2022-12-31T05:10:50.382Z,74.99
2022-12-31T05:13:37.020Z,75.44
2022-12-31T05:16:23.707Z,75.56
2022-12-31T05:19:10.519Z,75.90
2022-12-31T05:22:16.107Z,76.01
2022-12-31T05:25:02.500Z,76.25
2022-12-31T05:27:48.898Z,76.26
2022-12-31T05:30:36.217Z,76.49
2022-12-31T05:33:23.207Z,76.53
2022-12-31T05:36:10.141Z,77.17
2022-12-31T05:38:56.647Z,77.07
2022-12-31T05:41:43.346Z,77.43
2022-12-31T05:44:30.282Z,77.44
2022-12-31T05:47:17.382Z,77.58
2022-12-31T05:50:04.195Z,77.57
2022-12-31T05:52:50.710Z,77.75
2022-12-31T05:55:37.475Z,77.58
2022-12-31T05:58:24.082Z,77.68
2022-12-31T06:01:10.899Z,77.92
2022-12-31T06:03:57.371Z,78.17
2022-12-31T06:06:43.918Z,78.23
2022-12-31T06:09:30.466Z,78.31
2022-12-31T06:12:17.351Z,78.20
2022-12-31T06:15:04.657Z,78.45
2022-12-31T06:17:51.097Z,78.10
2022-12-31T06:20:37.957Z,78.08
2022-12-31T06:23:24.500Z,78.81
2022-12-31T06:26:10.868Z,78.92
2022-12-31T06:28:57.113Z,78.80
2022-12-31T06:31:43.964Z,78.94
2022-12-31T06:34:30.793Z,79.20
2022-12-31T06:37:16.865Z,78.86
2022-12-31T06:40:03.822Z,78.88
2022-12-31T06:42:53.388Z,78.55
2022-12-31T06:45:44.166Z,78.68
2022-12-31T06:48:31.080Z,78.78
2022-12-31T06:51:19.902Z,78.66
2022-12-31T06:54:06.606Z,78.23
2022-12-31T06:56:53.199Z,78.30
2022-12-31T06:59:40.150Z,78.22
2022-12-31T07:02:45.248Z,78.19
2022-12-31T07:05:34.680Z,78.10
2022-12-31T07:08:39.805Z,78.26
2022-12-31T07:11:35.920Z,78.30
2022-12-31T07:14:46.102Z,77.91
2022-12-31T07:17:45.752Z,77.90
2022-12-31T07:20:32.427Z,77.82
2022-12-31T07:23:19.401Z,77.74
2022-12-31T07:26:22.812Z,77.42
2022-12-31T07:29:23.217Z,77.51
2022-12-31T07:32:34.690Z,77.03
2022-12-31T07:35:32.966Z,76.92
2022-12-31T07:38:39.404Z,76.48
2022-12-31T07:41:54.955Z,76.36
2022-12-31T07:44:48.963Z,76.14
2022-12-31T07:47:35.685Z,76.00
2022-12-31T07:50:22.598Z,75.68
2022-12-31T07:53:09.179Z,75.55
2022-12-31T07:56:00.521Z,75.49
2022-12-31T07:59:08.550Z,75.19
2022-12-31T08:02:21.113Z,74.97
2022-12-31T08:05:22.823Z,74.84
2022-12-31T08:08:23.500Z,74.64
2022-12-31T08:11:26.731Z,74.39
2022-12-31T08:14:14.202Z,74.24
2022-12-31T08:17:00.623Z,74.27
2022-12-31T08:19:47.230Z,74.10
2022-12-31T08:22:47.742Z,74.22
2022-12-31T08:25:50.671Z,74.20
2022-12-31T08:29:01.925Z,74.26
2022-12-31T08:31:57.113Z,73.99
2022-12-31T08:34:54.731Z,73.83
2022-12-31T08:37:44.046Z,73.65
2022-12-31T08:40:45.479Z,73.39
2022-12-31T08:43:54.522Z,73.16
2022-12-31T08:46:45.020Z,72.90
2022-12-31T08:49:33.673Z,72.60
2022-12-31T08:52:23.799Z,72.35
2022-12-31T08:55:18.744Z,71.89
2022-12-31T08:58:08.508Z,71.68
2022-12-31T09:00:57.633Z,71.21
2022-12-31T09:03:55.758Z,70.96
2022-12-31T09:06:48.899Z,70.75
2022-12-31T09:09:53.879Z,70.37
2022-12-31T09:13:06.214Z,70.22
2022-12-31T09:16:02.096Z,70.56
2022-12-31T09:18:48.222Z,70.60
2022-12-31T09:21:34.566Z,70.57
2022-12-31T09:24:21.335Z,70.62
2022-12-31T09:27:25.462Z,69.76
2022-12-31T09:30:16.348Z,68.41
2022-12-31T09:33:13.255Z,67.45
2022-12-31T09:36:06.514Z,66.81
2022-12-31T09:39:03.347Z,67.02
2022-12-31T09:42:18.611Z,67.08
2022-12-31T09:45:14.110Z,67.30
2022-12-31T09:48:32.718Z,67.34
2022-12-31T09:51:25.710Z,67.11
2022-12-31T09:54:28.355Z,66.86
2022-12-31T09:57:20.701Z,66.46
2022-12-31T10:00:12.385Z,66.64
2022-12-31T10:03:24.179Z,67.06
2022-12-31T10:06:39.643Z,67.16
2022-12-31T10:09:36.078Z,67.20
2022-12-31T10:12:35.579Z,67.06
2022-12-31T10:15:45.096Z,67.14
2022-12-31T10:18:59.051Z,67.46
2022-12-31T10:22:07.875Z,67.76
2022-12-31T10:25:38.572Z,68.03
2022-12-31T10:28:49.307Z,68.14
2022-12-31T10:31:41.476Z,67.76
2022-12-31T10:34:52.557Z,67.46
2022-12-31T10:37:52.280Z,67.14
2022-12-31T10:41:11.851Z,67.18
2022-12-31T10:44:22.021Z,67.00
2022-12-31T10:47:53.306Z,66.41
2022-12-31T10:50:57.727Z,65.84
2022-12-31T10:54:02.212Z,65.46
2022-12-31T10:56:57.596Z,65.06
2022-12-31T11:00:09.495Z,64.81
2022-12-31T11:02:58.640Z,64.58
2022-12-31T11:06:09.052Z,64.60
2022-12-31T11:09:22.218Z,64.72
2022-12-31T11:12:11.360Z,64.28
2022-12-31T11:15:06.789Z,64.28
2022-12-31T11:18:22.032Z,63.91
2022-12-31T11:21:28.253Z,63.94
2022-12-31T11:24:25.706Z,64.03
2022-12-31T11:27:49.705Z,64.24
2022-12-31T11:30:56.231Z,64.13
2022-12-31T11:34:04.231Z,63.71
2022-12-31T11:36:59.567Z,63.27
2022-12-31T11:39:52.256Z,62.70
2022-12-31T11:43:16.847Z,62.86
2022-12-31T11:46:19.198Z,62.60
2022-12-31T11:49:32.120Z,61.90
2022-12-31T11:52:32.155Z,61.81
2022-12-31T11:55:34.145Z,61.13
2022-12-31T11:58:20.970Z,60.94
2022-12-31T12:01:12.782Z,60.85
2022-12-31T12:03:59.111Z,60.74
2022-12-31T12:06:46.195Z,60.43
2022-12-31T12:09:34.515Z,60.25
2022-12-31T12:12:21.713Z,60.33
2022-12-31T12:15:10.197Z,60.00
2022-12-31T12:17:58.595Z,60.18
2022-12-31T12:20:46.375Z,60.15
2022-12-31T12:23:33.118Z,60.24
2022-12-31T12:26:47.340Z,60.59
2022-12-31T12:29:34.739Z,60.87
2022-12-31T12:32:26.399Z,60.99
2022-12-31T12:35:19.769Z,60.88
2022-12-31T12:38:08.300Z,60.66
2022-12-31T12:40:58.719Z,60.53
2022-12-31T12:43:45.504Z,60.47
2022-12-31T12:46:58.299Z,60.54
2022-12-31T12:49:47.542Z,60.88
2022-12-31T12:52:59.182Z,61.33
2022-12-31T12:56:24.990Z,61.82
2022-12-31T12:59:21.369Z,62.30
2022-12-31T13:02:16.826Z,62.75
2022-12-31T13:05:28.327Z,62.76
2022-12-31T13:08:52.960Z,63.28
2022-12-31T13:11:59.896Z,63.50
2022-12-31T13:14:56.037Z,63.58
2022-12-31T13:17:58.611Z,63.92
2022-12-31T13:20:52.418Z,64.22
2022-12-31T13:23:45.031Z,64.44
2022-12-31T13:27:03.323Z,64.73
2022-12-31T13:29:50.424Z,64.94
2022-12-31T13:33:00.196Z,65.13
2022-12-31T13:35:55.616Z,65.29
2022-12-31T13:38:45.795Z,65.37
2022-12-31T13:41:40.052Z,65.43
2022-12-31T13:44:39.673Z,65.43
2022-12-31T13:47:48.278Z,65.41
2022-12-31T13:50:41.111Z,65.40
2022-12-31T13:54:02.231Z,65.64
2022-12-31T13:56:49.380Z,65.60
2022-12-31T13:59:38.789Z,65.83
2022-12-31T14:02:39.838Z,65.84
2022-12-31T14:05:33.378Z,66.06
2022-12-31T14:08:19.778Z,66.09
2022-12-31T14:11:25.336Z,66.25
2022-12-31T14:14:59.113Z,66.36
2022-12-31T14:17:59.329Z,66.61
2022-12-31T14:21:12.037Z,66.66
2022-12-31T14:24:31.915Z,66.84
2022-12-31T14:27:26.311Z,67.01
2022-12-31T14:30:21.416Z,67.03
2022-12-31T14:33:32.968Z,67.04
2022-12-31T14:36:37.162Z,67.05
2022-12-31T14:39:34.805Z,67.22
2022-12-31T14:42:33.046Z,67.42
2022-12-31T14:45:54.065Z,67.49
2022-12-31T14:48:43.409Z,67.64
2022-12-31T14:51:30.521Z,67.66
2022-12-31T14:54:37.505Z,67.85
2022-12-31T14:57:25.540Z,67.79
2022-12-31T15:00:38.275Z,67.72
2022-12-31T15:03:34.578Z,67.69
2022-12-31T15:06:24.173Z,67.68
2022-12-31T15:09:22.155Z,67.80
2022-12-31T15:12:50.107Z,68.00
2022-12-31T15:15:56.327Z,67.96
2022-12-31T15:19:05.045Z,68.02
2022-12-31T15:22:01.453Z,68.07
2022-12-31T15:24:48.022Z,67.85
2022-12-31T15:27:38.586Z,67.63
2022-12-31T15:30:44.938Z,67.63
2022-12-31T15:33:36.256Z,67.58
2022-12-31T15:36:28.874Z,67.77
2022-12-31T15:39:14.889Z,67.83
2022-12-31T15:45:31.736Z,67.91
2022-12-31T15:48:22.171Z,67.57
2022-12-31T15:51:11.473Z,67.65
2022-12-31T15:54:00.745Z,67.70
2022-12-31T15:56:49.233Z,67.60
2022-12-31T15:59:36.516Z,67.15
2022-12-31T16:02:27.057Z,67.00
2022-12-31T16:05:21.633Z,67.01
2022-12-31T16:08:17.538Z,66.79
2022-12-31T16:11:07.602Z,66.87
2022-12-31T16:13:54.924Z,66.87
2022-12-31T16:16:52.058Z,66.83
2022-12-31T16:19:46.137Z,66.88
2022-12-31T16:22:39.581Z,66.87
2022-12-31T16:25:31.210Z,66.89
2022-12-31T16:28:20.465Z,66.75
2022-12-31T16:31:08.649Z,67.03
2022-12-31T16:34:19.612Z,67.03
2022-12-31T16:37:13.558Z,67.27
2022-12-31T16:39:59.879Z,67.25
2022-12-31T16:42:47.282Z,67.45
2022-12-31T16:45:37.013Z,67.61
2022-12-31T16:48:23.755Z,67.70
2022-12-31T16:51:16.678Z,67.72
2022-12-31T16:54:03.731Z,67.96
2022-12-31T16:56:50.253Z,68.09
2022-12-31T16:59:41.466Z,68.21
2022-12-31T17:02:44.175Z,68.36
2022-12-31T17:05:32.621Z,68.42
2022-12-31T17:08:24.926Z,68.46
2022-12-31T17:11:42.319Z,68.45
2022-12-31T17:14:29.173Z,68.73
2022-12-31T17:17:24.098Z,68.76
2022-12-31T17:20:27.045Z,68.76
2022-12-31T17:23:22.733Z,68.54
2022-12-31T17:26:14.358Z,68.50
2022-12-31T17:29:02.586Z,68.53
2022-12-31T17:32:01.802Z,68.41
2022-12-31T17:34:50.340Z,68.46
2022-12-31T17:37:36.899Z,68.36
2022-12-31T17:40:53.183Z,68.21
2022-12-31T17:43:40.315Z,68.18
2022-12-31T17:46:27.114Z,68.15
2022-12-31T17:49:16.510Z,67.81
2022-12-31T17:52:03.319Z,67.45
2022-12-31T17:54:50.062Z,67.62
2022-12-31T17:57:36.518Z,67.60
2022-12-31T18:00:25.637Z,67.61
2022-12-31T18:03:11.854Z,67.55
2022-12-31T18:05:58.557Z,67.57
2022-12-31T18:11:23.222Z,67.47
2022-12-31T18:14:16.132Z,67.40
2022-12-31T18:17:02.834Z,67.49
2022-12-31T18:20:04.685Z,67.40
2022-12-31T18:22:52.814Z,67.55
2022-12-31T18:28:25.380Z,67.67
2022-12-31T18:31:25.265Z,67.68
2022-12-31T18:34:13.707Z,67.67
2022-12-31T18:37:00.874Z,67.55
2022-12-31T18:39:48.134Z,67.67
2022-12-31T18:42:35.003Z,67.54
2022-12-31T18:45:21.835Z,67.59
2022-12-31T18:48:08.639Z,67.42
2022-12-31T18:50:56.306Z,67.19
2022-12-31T18:53:42.917Z,67.16
2022-12-31T18:56:29.643Z,67.20
2022-12-31T18:59:16.437Z,67.15
2022-12-31T19:02:03.154Z,66.95
2022-12-31T19:04:50.409Z,66.86
2022-12-31T19:07:37.159Z,66.85
2022-12-31T19:10:25.703Z,66.76
2022-12-31T19:13:13.390Z,66.73
2022-12-31T19:16:01.241Z,66.54
2022-12-31T19:18:49.609Z,66.59
2022-12-31T19:21:36.088Z,66.26
2022-12-31T19:24:26.771Z,66.39
2022-12-31T19:27:14.163Z,66.51
2022-12-31T19:30:01.472Z,66.63
2022-12-31T19:32:48.488Z,66.58
2022-12-31T19:35:35.251Z,66.72
2022-12-31T19:38:24.320Z,66.80
2022-12-31T19:41:19.449Z,66.87
2022-12-31T19:44:06.210Z,66.85
2022-12-31T19:46:53.249Z,66.98
2022-12-31T19:49:39.860Z,66.93
2022-12-31T19:52:26.532Z,66.88
2022-12-31T19:55:15.748Z,66.75
2022-12-31T19:58:02.388Z,66.73
2022-12-31T20:00:55.680Z,66.78
2022-12-31T20:03:44.769Z,66.74
2022-12-31T20:06:31.648Z,66.76
2022-12-31T20:09:18.514Z,66.75
2022-12-31T20:23:02.793Z,66.39
2022-12-31T20:25:59.882Z,66.59
2022-12-31T20:28:46.755Z,66.57
2022-12-31T20:31:33.595Z,66.69
2022-12-31T20:34:20.465Z,66.62
2022-12-31T20:37:07.539Z,66.73
2022-12-31T20:39:54.196Z,66.64
2022-12-31T20:42:41.623Z,66.59
2022-12-31T20:45:28.067Z,66.52
2022-12-31T20:48:15.060Z,66.59
2022-12-31T20:51:02.098Z,66.59
2022-12-31T20:53:57.742Z,66.59
2022-12-31T20:56:44.188Z,66.60
2022-12-31T20:59:30.732Z,66.37
2022-12-31T21:02:21.639Z,66.35
2022-12-31T21:05:09.299Z,66.42
2022-12-31T21:07:56.473Z,66.38
2022-12-31T21:10:43.093Z,66.42
2022-12-31T21:13:31.289Z,66.38
2022-12-31T21:16:18.132Z,66.28
2022-12-31T21:19:05.560Z,66.40
2022-12-31T21:21:52.328Z,66.37
2022-12-31T21:24:39.265Z,66.33
2022-12-31T21:27:25.858Z,66.40
2022-12-31T21:30:20.606Z,66.18
2022-12-31T21:33:08.593Z,65.98
2022-12-31T21:35:58.568Z,65.82
2022-12-31T21:38:48.214Z,65.50
2022-12-31T21:41:53.480Z,65.60
2022-12-31T21:44:39.943Z,65.16
2022-12-31T21:47:50.172Z,65.01
2022-12-31T21:50:36.832Z,64.89
2022-12-31T21:53:28.993Z,64.58
2022-12-31T21:56:21.610Z,64.59
2022-12-31T21:59:42.996Z,63.93
2022-12-31T22:02:59.579Z,63.82
2022-12-31T22:05:50.352Z,63.74
2022-12-31T22:08:37.046Z,63.40
2022-12-31T22:11:26.113Z,63.32
2022-12-31T22:14:13.913Z,63.09
2022-12-31T22:17:00.807Z,63.13
2022-12-31T22:20:17.035Z,63.40
2022-12-31T22:22:54.483Z,63.19
2022-12-31T22:25:41.127Z,63.42
2022-12-31T22:28:43.913Z,63.40
2022-12-31T22:31:31.216Z,63.43
2022-12-31T22:34:18.486Z,63.47
2022-12-31T22:37:27.550Z,63.65
2022-12-31T22:40:12.868Z,64.03
2022-12-31T22:42:59.545Z,64.19
2022-12-31T22:45:46.150Z,64.42
2022-12-31T22:48:32.528Z,64.36
2022-12-31T22:51:20.307Z,64.19
2022-12-31T22:54:06.845Z,64.20
2022-12-31T22:56:53.855Z,64.15
2022-12-31T22:59:40.501Z,64.25
2022-12-31T23:02:27.612Z,64.29
2022-12-31T23:05:14.962Z,64.27
2022-12-31T23:08:07.947Z,64.42
2022-12-31T23:11:00.277Z,64.50
2022-12-31T23:14:05.713Z,64.75
2022-12-31T23:17:30.991Z,64.62
2022-12-31T23:20:39.719Z,64.58
2022-12-31T23:23:26.644Z,64.59
2022-12-31T23:26:13.243Z,64.38
2022-12-31T23:29:00.608Z,64.41
2022-12-31T23:31:47.848Z,64.33
2022-12-31T23:34:35.281Z,64.26
2022-12-31T23:37:22.077Z,64.03
2022-12-31T23:40:12.329Z,63.98
2022-12-31T23:43:03.234Z,63.85
2022-12-31T23:45:51.004Z,63.86
2022-12-31T23:48:37.976Z,63.44
2022-12-31T23:51:24.784Z,63.17
2022-12-31T23:54:13.196Z,63.21
2022-12-31T23:56:59.648Z,62.55
2022-12-31T23:59:46.859Z,62.40
